createdAt,value
2019-03-29T05:00:52.720Z,1027.45
2019-03-29T05:01:52.595Z,1027.41
2019-03-29T05:03:45.259Z,1027.37
2019-03-29T05:04:45.140Z,1027.37
2019-03-29T05:06:37.822Z,1027.38
2019-03-29T05:07:37.692Z,1027.36
2019-03-29T05:09:30.356Z,1027.39
2019-03-29T05:10:30.241Z,1027.40
2019-03-29T05:12:22.924Z,1027.32
2019-03-29T05:13:22.822Z,1027.30
2019-03-29T05:15:15.476Z,1027.28
2019-03-29T05:16:15.344Z,1027.29
2019-03-29T05:18:08.006Z,1027.33
2019-03-29T05:19:07.889Z,1027.33
2019-03-29T05:21:00.632Z,1027.33
2019-03-29T05:22:00.460Z,1027.34
2019-03-29T05:23:53.119Z,1027.33
2019-03-29T05:24:53.011Z,1027.34
2019-03-29T05:26:46.187Z,1027.32
2019-03-29T05:27:46.058Z,1027.32
2019-03-29T05:29:38.725Z,1027.27
2019-03-29T05:30:38.617Z,1027.28
2019-03-29T05:32:31.300Z,1027.28
2019-03-29T05:33:31.168Z,1027.26
2019-03-29T05:35:23.854Z,1027.26
2019-03-29T05:36:23.735Z,1027.29
2019-03-29T05:38:16.427Z,1027.29
2019-03-29T05:39:16.322Z,1027.20
2019-03-29T05:41:08.978Z,1027.26
2019-03-29T05:42:08.844Z,1027.25
2019-03-29T05:44:01.508Z,1027.20
2019-03-29T05:45:01.395Z,1027.22
2019-03-29T05:46:54.074Z,1027.20
2019-03-29T05:47:53.947Z,1027.20
2019-03-29T05:49:46.609Z,1027.22
2019-03-29T05:50:46.494Z,1027.22
2019-03-29T05:52:39.170Z,1027.24
2019-03-29T05:53:39.044Z,1027.26
2019-03-29T05:55:32.885Z,1027.26
2019-03-29T05:56:31.591Z,1027.22
2019-03-29T05:58:24.272Z,1027.26
2019-03-29T05:59:24.148Z,1027.22
2019-03-29T06:01:16.892Z,1027.24
2019-03-29T06:02:16.787Z,1027.25
2019-03-29T06:04:09.390Z,1027.21
2019-03-29T06:05:09.262Z,1027.26
2019-03-29T06:07:01.942Z,1027.26
2019-03-29T06:08:01.817Z,1027.20
2019-03-29T06:09:54.486Z,1027.30
2019-03-29T06:10:54.371Z,1027.26
2019-03-29T06:12:47.065Z,1027.25
2019-03-29T06:13:46.924Z,1027.26
2019-03-29T06:15:39.578Z,1027.27
2019-03-29T06:16:39.576Z,1027.27
2019-03-29T06:18:32.149Z,1027.26
2019-03-29T06:19:32.022Z,1027.23
2019-03-29T06:21:24.692Z,1027.27
2019-03-29T06:22:24.577Z,1027.29
2019-03-29T06:24:17.259Z,1027.31
2019-03-29T06:25:17.131Z,1027.34
2019-03-29T06:27:09.795Z,1027.31
2019-03-29T06:28:09.681Z,1027.32
2019-03-29T06:30:02.355Z,1027.30
2019-03-29T06:31:02.229Z,1027.32
2019-03-29T06:32:54.907Z,1027.31
2019-03-29T06:33:54.775Z,1027.32
2019-03-29T06:35:47.442Z,1027.33
2019-03-29T06:36:47.328Z,1027.32
2019-03-29T06:38:40.016Z,1027.33
2019-03-29T06:39:39.883Z,1027.36
2019-03-29T06:41:32.542Z,1027.34
2019-03-29T06:42:32.429Z,1027.34
2019-03-29T06:44:25.109Z,1027.30
2019-03-29T06:45:24.988Z,1027.26
2019-03-29T06:47:17.655Z,1027.24
2019-03-29T06:48:17.547Z,1027.25
2019-03-29T06:50:10.227Z,1027.24
2019-03-29T06:51:10.101Z,1027.27
2019-03-29T06:53:02.792Z,1027.22
2019-03-29T06:54:02.661Z,1027.25
2019-03-29T06:55:55.326Z,1027.26
2019-03-29T06:56:55.216Z,1027.20
2019-03-29T06:58:47.968Z,1027.19
2019-03-29T06:59:47.767Z,1027.23
2019-03-29T07:01:40.433Z,1027.25
2019-03-29T07:02:40.323Z,1027.25
2019-03-29T07:04:33.001Z,1027.27
2019-03-29T07:05:32.870Z,1027.28
2019-03-29T07:07:25.536Z,1027.30
2019-03-29T07:08:25.425Z,1027.27
2019-03-29T07:10:18.174Z,1027.24
2019-03-29T07:11:18.224Z,1027.24
2019-03-29T07:13:10.675Z,1027.18
2019-03-29T07:14:10.538Z,1027.15
2019-03-29T07:16:03.204Z,1027.14
2019-03-29T07:17:03.087Z,1027.16
2019-03-29T07:18:55.770Z,1027.14
2019-03-29T07:19:55.643Z,1027.20
2019-03-29T07:21:48.334Z,1027.14
2019-03-29T07:22:48.227Z,1027.17
2019-03-29T07:24:40.906Z,1027.17
2019-03-29T07:25:40.769Z,1027.20
2019-03-29T07:27:43.916Z,1027.47
2019-03-29T07:28:33.323Z,1027.52
2019-03-29T07:30:26.018Z,1027.53
2019-03-29T07:31:25.875Z,1027.50
2019-03-29T07:33:18.551Z,1027.43
2019-03-29T07:34:18.444Z,1027.42
2019-03-29T07:36:11.127Z,1027.52
2019-03-29T07:37:11.003Z,1027.47
2019-03-29T07:39:03.707Z,1027.54
2019-03-29T07:40:03.570Z,1027.46
2019-03-29T07:41:56.245Z,1027.51
2019-03-29T07:42:56.137Z,1027.59
2019-03-29T07:44:48.838Z,1027.50
2019-03-29T07:45:48.699Z,1027.47
2019-03-29T07:47:41.379Z,1027.56
2019-03-29T07:48:41.284Z,1027.50
2019-03-29T07:50:33.964Z,1027.52
2019-03-29T07:51:33.848Z,1027.51
2019-03-29T07:53:26.512Z,1027.51
2019-03-29T07:54:26.405Z,1027.43
2019-03-29T07:56:19.101Z,1027.32
2019-03-29T07:57:18.983Z,1027.28
2019-03-29T07:59:11.647Z,1027.23
2019-03-29T08:00:11.542Z,1027.19
2019-03-29T08:02:04.233Z,1027.20
2019-03-29T08:03:04.110Z,1027.20
2019-03-29T08:04:56.824Z,1027.18
2019-03-29T08:05:56.681Z,1027.19
2019-03-29T08:07:49.358Z,1027.18
2019-03-29T08:08:49.250Z,1027.18
2019-03-29T08:10:42.005Z,1027.18
2019-03-29T08:11:46.382Z,1027.20
2019-03-29T08:13:34.541Z,1027.20
2019-03-29T08:14:34.433Z,1027.26
2019-03-29T08:16:27.117Z,1027.25
2019-03-29T08:17:26.998Z,1027.25
2019-03-29T08:19:19.675Z,1027.22
2019-03-29T08:20:38.240Z,1027.26
2019-03-29T08:22:12.262Z,1027.26
2019-03-29T08:23:12.139Z,1027.23
2019-03-29T08:25:04.826Z,1027.21
2019-03-29T08:26:04.697Z,1027.23
2019-03-29T08:27:57.374Z,1027.23
2019-03-29T08:28:57.267Z,1027.22
2019-03-29T08:31:01.024Z,1027.17
2019-03-29T08:32:00.895Z,1027.16
2019-03-29T08:33:53.571Z,1027.16
2019-03-29T08:34:53.467Z,1027.17
2019-03-29T08:36:46.156Z,1027.18
2019-03-29T08:37:46.029Z,1027.17
2019-03-29T08:39:38.719Z,1027.21
2019-03-29T08:40:38.607Z,1027.21
2019-03-29T08:42:31.293Z,1027.18
2019-03-29T08:43:31.169Z,1027.18
2019-03-29T08:45:23.855Z,1027.18
2019-03-29T08:46:23.729Z,1027.22
2019-03-29T08:48:16.421Z,1027.22
2019-03-29T08:49:17.054Z,1027.17
2019-03-29T08:51:08.997Z,1027.19
2019-03-29T08:52:08.857Z,1027.19
2019-03-29T08:54:01.530Z,1027.19
2019-03-29T08:55:01.426Z,1027.18
2019-03-29T08:56:54.122Z,1027.17
2019-03-29T08:57:53.982Z,1027.12
2019-03-29T08:59:46.650Z,1027.14
2019-03-29T09:00:46.541Z,1027.16
2019-03-29T09:02:39.235Z,1027.12
2019-03-29T09:03:39.108Z,1027.11
2019-03-29T09:05:31.803Z,1027.05
2019-03-29T09:06:31.680Z,1027.10
2019-03-29T09:08:24.367Z,1027.10
2019-03-29T09:09:24.248Z,1027.07
2019-03-29T09:11:16.962Z,1027.10
2019-03-29T09:12:16.812Z,1027.14
2019-03-29T09:14:09.493Z,1027.05
2019-03-29T09:15:09.369Z,1027.07
2019-03-29T09:17:02.061Z,1027.03
2019-03-29T09:18:01.937Z,1027.05
2019-03-29T09:19:54.613Z,1027.06
2019-03-29T09:20:54.510Z,1027.02
2019-03-29T09:22:47.206Z,1027.01
2019-03-29T09:23:47.071Z,1027.00
2019-03-29T09:25:40.620Z,1026.98
2019-03-29T09:26:39.627Z,1026.91
2019-03-29T09:28:33.038Z,1026.87
2019-03-29T09:29:32.189Z,1026.83
2019-03-29T09:31:24.869Z,1026.88
2019-03-29T09:32:24.777Z,1026.83
2019-03-29T09:34:17.451Z,1026.86
2019-03-29T09:35:17.326Z,1026.89
2019-03-29T09:37:10.018Z,1026.89
2019-03-29T09:38:09.899Z,1026.82
2019-03-29T09:40:02.573Z,1026.82
2019-03-29T09:41:02.473Z,1026.78
2019-03-29T09:43:06.726Z,1026.74
2019-03-29T09:43:55.031Z,1026.72
2019-03-29T09:45:47.707Z,1026.74
2019-03-29T09:46:47.586Z,1026.71
2019-03-29T09:48:40.283Z,1026.69
2019-03-29T09:49:40.163Z,1026.73
2019-03-29T09:51:35.929Z,1026.72
2019-03-29T09:52:32.733Z,1026.69
2019-03-29T09:54:25.422Z,1026.64
2019-03-29T09:55:25.283Z,1026.64
2019-03-29T09:57:17.982Z,1026.68
2019-03-29T09:58:17.845Z,1026.59
2019-03-29T10:00:19.060Z,1026.61
2019-03-29T10:01:10.438Z,1026.59
2019-03-29T10:03:03.103Z,1026.58
2019-03-29T10:04:02.980Z,1026.56
2019-03-29T10:05:55.657Z,1026.55
2019-03-29T10:06:55.547Z,1026.48
2019-03-29T10:08:48.237Z,1026.47
2019-03-29T10:09:48.110Z,1026.44
2019-03-29T10:11:40.779Z,1026.42
2019-03-29T10:12:43.664Z,1026.45
2019-03-29T10:14:33.734Z,1026.43
2019-03-29T10:15:33.247Z,1026.45
2019-03-29T10:17:25.917Z,1026.40
2019-03-29T10:18:25.811Z,1026.43
2019-03-29T10:20:18.498Z,1026.39
2019-03-29T10:21:18.379Z,1026.35
2019-03-29T10:23:11.059Z,1026.28
2019-03-29T10:24:10.941Z,1026.30
2019-03-29T10:26:03.612Z,1026.25
2019-03-29T10:27:03.508Z,1026.24
2019-03-29T10:28:56.201Z,1026.16
2019-03-29T10:29:56.070Z,1026.17
2019-03-29T10:31:48.755Z,1026.09
2019-03-29T10:32:48.640Z,1026.05
2019-03-29T10:34:41.330Z,1026.00
2019-03-29T10:35:51.753Z,1025.97
2019-03-29T10:37:33.889Z,1025.93
2019-03-29T10:38:33.784Z,1025.96
2019-03-29T10:40:26.467Z,1025.94
2019-03-29T10:41:26.351Z,1025.98
2019-03-29T10:43:19.017Z,1025.93
2019-03-29T10:44:18.919Z,1025.89
2019-03-29T10:46:11.600Z,1025.84
2019-03-29T10:47:11.485Z,1025.84
2019-03-29T10:49:04.174Z,1025.87
2019-03-29T10:50:04.046Z,1025.82
2019-03-29T10:51:56.717Z,1025.80
2019-03-29T10:52:56.605Z,1025.82
2019-03-29T10:54:50.006Z,1025.73
2019-03-29T10:55:49.176Z,1025.71
2019-03-29T10:57:41.869Z,1025.65
2019-03-29T10:58:44.773Z,1025.68
2019-03-29T11:00:34.444Z,1025.60
2019-03-29T11:01:34.318Z,1025.58
2019-03-29T11:03:28.676Z,1025.59
2019-03-29T11:04:26.893Z,1025.58
2019-03-29T11:06:19.579Z,1025.59
2019-03-29T11:07:19.457Z,1025.56
2019-03-29T11:09:12.146Z,1025.49
2019-03-29T11:10:12.027Z,1025.45
2019-03-29T11:12:04.695Z,1025.46
2019-03-29T11:13:12.592Z,1025.43
2019-03-29T11:14:57.284Z,1025.40
2019-03-29T11:15:57.160Z,1025.39
2019-03-29T11:17:49.849Z,1025.33
2019-03-29T11:18:49.741Z,1025.35
2019-03-29T11:20:42.432Z,1025.35
2019-03-29T11:21:42.311Z,1025.41
2019-03-29T11:23:34.989Z,1025.37
2019-03-29T11:24:34.883Z,1025.38
2019-03-29T11:26:27.570Z,1025.35
2019-03-29T11:27:27.448Z,1025.34
2019-03-29T11:29:20.137Z,1025.28
2019-03-29T11:30:20.017Z,1025.21
2019-03-29T11:32:12.705Z,1025.21
2019-03-29T11:33:12.604Z,1025.25
2019-03-29T11:35:05.287Z,1025.20
2019-03-29T11:36:05.150Z,1025.29
2019-03-29T11:37:57.827Z,1025.24
2019-03-29T11:38:57.729Z,1025.20
2019-03-29T11:40:50.423Z,1025.19
2019-03-29T11:41:50.298Z,1025.16
2019-03-29T11:43:42.978Z,1025.14
2019-03-29T11:44:42.870Z,1025.16
2019-03-29T11:46:35.565Z,1025.11
2019-03-29T11:47:35.440Z,1025.13
2019-03-29T11:49:28.117Z,1025.12
2019-03-29T11:50:29.210Z,1025.11
2019-03-29T11:52:20.703Z,1025.12
2019-03-29T11:53:20.580Z,1025.08
2019-03-29T11:55:13.258Z,1025.02
2019-03-29T11:56:13.155Z,1025.05
2019-03-29T11:58:05.843Z,1025.00
2019-03-29T11:59:05.718Z,1024.99
2019-03-29T12:00:58.406Z,1024.92
2019-03-29T12:01:58.294Z,1024.85
2019-03-29T12:03:50.971Z,1024.87
2019-03-29T12:04:50.866Z,1024.83
2019-03-29T12:06:43.552Z,1024.80
2019-03-29T12:07:43.432Z,1024.82
2019-03-29T12:09:36.107Z,1024.85
2019-03-29T12:10:36.004Z,1024.79
2019-03-29T12:12:28.691Z,1024.74
2019-03-29T12:13:40.350Z,1024.78
2019-03-29T12:15:21.243Z,1024.75
2019-03-29T12:16:21.138Z,1024.70
2019-03-29T12:18:13.838Z,1024.68
2019-03-29T12:19:13.709Z,1024.65
2019-03-29T12:21:06.402Z,1024.66
2019-03-29T12:22:06.287Z,1024.64
2019-03-29T12:23:58.959Z,1024.59
2019-03-29T12:24:58.854Z,1024.58
2019-03-29T12:26:54.822Z,1024.59
2019-03-29T12:27:51.424Z,1024.51
2019-03-29T12:29:44.111Z,1024.50
2019-03-29T12:30:44.003Z,1024.42
2019-03-29T12:32:36.701Z,1024.45
2019-03-29T12:33:36.575Z,1024.41
2019-03-29T12:35:29.255Z,1024.35
2019-03-29T12:36:29.142Z,1024.41
2019-03-29T12:38:21.835Z,1024.36
2019-03-29T12:39:21.709Z,1024.33
2019-03-29T12:41:14.408Z,1024.30
2019-03-29T12:42:14.283Z,1024.30
2019-03-29T12:44:06.969Z,1024.30
2019-03-29T12:45:06.856Z,1024.28
2019-03-29T12:46:59.549Z,1024.26
2019-03-29T12:47:59.427Z,1024.25
2019-03-29T12:49:52.103Z,1024.22
2019-03-29T12:50:51.998Z,1024.18
2019-03-29T12:52:44.686Z,1024.17
2019-03-29T12:53:44.570Z,1024.16
2019-03-29T12:55:37.248Z,1024.16
2019-03-29T12:56:37.144Z,1024.16
2019-03-29T12:58:29.835Z,1024.10
2019-03-29T12:59:32.770Z,1024.09
2019-03-29T13:01:22.391Z,1024.06
2019-03-29T13:02:22.288Z,1024.10
2019-03-29T13:04:14.979Z,1024.03
2019-03-29T13:05:15.089Z,1024.08
2019-03-29T13:07:07.534Z,1024.04
2019-03-29T13:08:07.435Z,1024.02
2019-03-29T13:10:00.269Z,1023.93
2019-03-29T13:11:00.013Z,1023.95
2019-03-29T13:12:52.706Z,1023.96
2019-03-29T13:13:52.610Z,1024.00
2019-03-29T13:15:45.271Z,1023.97
2019-03-29T13:16:45.165Z,1023.94
2019-03-29T13:18:37.871Z,1023.91
2019-03-29T13:19:37.749Z,1023.94
2019-03-29T13:21:30.427Z,1023.88
2019-03-29T13:22:30.319Z,1023.88
2019-03-29T13:24:23.018Z,1023.86
2019-03-29T13:25:22.899Z,1023.83
2019-03-29T13:27:15.593Z,1023.86
2019-03-29T13:28:15.475Z,1023.79
2019-03-29T13:30:08.171Z,1023.79
2019-03-29T13:31:08.079Z,1023.74
2019-03-29T13:33:00.747Z,1023.76
2019-03-29T13:34:00.622Z,1023.76
2019-03-29T13:35:53.303Z,1023.65
2019-03-29T13:36:53.248Z,1023.65
2019-03-29T13:38:45.959Z,1023.59
2019-03-29T13:39:45.792Z,1023.58
2019-03-29T13:41:38.471Z,1023.56
2019-03-29T13:42:38.359Z,1023.55
2019-03-29T13:44:31.056Z,1023.50
2019-03-29T13:45:30.930Z,1023.50
2019-03-29T13:47:23.608Z,1023.43
2019-03-29T13:48:23.506Z,1023.48
2019-03-29T13:50:16.201Z,1023.40
2019-03-29T13:51:16.073Z,1023.42
2019-03-29T13:53:08.763Z,1023.39
2019-03-29T13:54:08.655Z,1023.38
2019-03-29T13:56:01.354Z,1023.32
2019-03-29T13:57:01.233Z,1023.29
2019-03-29T13:58:53.956Z,1023.28
2019-03-29T13:59:53.811Z,1023.20
2019-03-29T14:01:46.493Z,1023.19
2019-03-29T14:02:46.382Z,1023.16
2019-03-29T14:04:39.074Z,1023.16
2019-03-29T14:05:38.952Z,1023.15
2019-03-29T14:07:31.638Z,1023.13
2019-03-29T14:08:31.530Z,1023.12
2019-03-29T14:10:24.224Z,1023.11
2019-03-29T14:11:24.100Z,1023.06
2019-03-29T14:13:19.557Z,1023.07
2019-03-29T14:14:16.676Z,1023.05
2019-03-29T14:16:09.371Z,1023.07
2019-03-29T14:17:09.248Z,1023.07
2019-03-29T14:19:01.934Z,1022.98
2019-03-29T14:20:01.825Z,1022.98
2019-03-29T14:21:54.523Z,1022.97
2019-03-29T14:22:54.397Z,1023.02
2019-03-29T14:24:47.096Z,1022.93
2019-03-29T14:25:46.970Z,1022.93
2019-03-29T14:27:39.653Z,1022.85
2019-03-29T14:28:39.543Z,1022.87
2019-03-29T14:30:32.243Z,1022.83
2019-03-29T14:31:32.128Z,1022.83
2019-03-29T14:33:24.804Z,1022.81
2019-03-29T14:34:24.700Z,1022.78
2019-03-29T14:36:17.399Z,1022.81
2019-03-29T14:37:17.273Z,1022.77
2019-03-29T14:39:09.969Z,1022.73
2019-03-29T14:40:09.863Z,1022.70
2019-03-29T14:42:02.602Z,1022.73
2019-03-29T14:43:02.443Z,1022.69
2019-03-29T14:44:55.576Z,1022.68
2019-03-29T14:45:55.033Z,1022.68
2019-03-29T14:47:47.904Z,1022.69
2019-03-29T14:48:47.886Z,1022.66
2019-03-29T14:50:40.478Z,1022.64
2019-03-29T14:51:40.358Z,1022.64
2019-03-29T14:53:33.039Z,1022.58
2019-03-29T14:54:32.926Z,1022.54
2019-03-29T14:56:25.626Z,1022.52
2019-03-29T14:57:25.507Z,1022.53
2019-03-29T14:59:18.238Z,1022.47
2019-03-29T15:00:18.088Z,1022.46
2019-03-29T15:02:10.772Z,1022.42
2019-03-29T15:03:10.698Z,1022.41
2019-03-29T15:05:03.348Z,1022.43
2019-03-29T15:06:03.227Z,1022.37
2019-03-29T15:07:55.916Z,1022.40
2019-03-29T15:08:55.793Z,1022.35
2019-03-29T15:10:48.993Z,1022.37
2019-03-29T15:11:48.875Z,1022.34
2019-03-29T15:13:41.566Z,1022.28
2019-03-29T15:14:41.444Z,1022.25
2019-03-29T15:16:34.136Z,1022.22
2019-03-29T15:17:34.017Z,1022.21
2019-03-29T15:19:26.772Z,1022.26
2019-03-29T15:20:26.593Z,1022.20
2019-03-29T15:22:19.311Z,1022.22
2019-03-29T15:23:19.187Z,1022.22
2019-03-29T15:25:11.864Z,1022.19
2019-03-29T15:26:11.764Z,1022.20
2019-03-29T15:28:04.447Z,1022.17
2019-03-29T15:29:04.341Z,1022.19
2019-03-29T15:30:57.036Z,1022.16
2019-03-29T15:31:56.917Z,1022.11
2019-03-29T15:33:49.594Z,1022.11
2019-03-29T15:34:49.488Z,1022.09
2019-03-29T15:36:42.190Z,1022.06
2019-03-29T15:37:42.067Z,1022.04
2019-03-29T15:39:34.747Z,1022.01
2019-03-29T15:40:34.637Z,1022.00
2019-03-29T15:42:27.335Z,1021.99
2019-03-29T15:43:27.219Z,1022.03
2019-03-29T15:45:21.032Z,1021.94
2019-03-29T15:46:19.790Z,1021.95
2019-03-29T15:48:12.478Z,1021.92
2019-03-29T15:49:12.367Z,1021.91
2019-03-29T15:51:05.085Z,1021.82
2019-03-29T15:52:04.947Z,1021.83
2019-03-29T15:53:57.615Z,1021.81
2019-03-29T15:54:57.520Z,1021.82
2019-03-29T15:56:50.207Z,1021.83
2019-03-29T15:57:50.075Z,1021.78
2019-03-29T15:59:42.777Z,1021.78
2019-03-29T16:00:42.666Z,1021.77
2019-03-29T16:02:35.366Z,1021.70
2019-03-29T16:03:35.249Z,1021.71
2019-03-29T16:05:27.930Z,1021.66
2019-03-29T16:06:27.823Z,1021.66
2019-03-29T16:08:20.518Z,1021.63
2019-03-29T16:09:20.399Z,1021.59
2019-03-29T16:11:17.092Z,1021.57
2019-03-29T16:12:12.968Z,1021.55
2019-03-29T16:14:05.644Z,1021.53
2019-03-29T16:15:05.543Z,1021.57
2019-03-29T16:16:58.241Z,1021.52
2019-03-29T16:17:58.118Z,1021.55
2019-03-29T16:19:50.796Z,1021.51
2019-03-29T16:20:50.689Z,1021.50
2019-03-29T16:22:43.392Z,1021.52
2019-03-29T16:23:43.258Z,1021.51
2019-03-29T16:25:35.936Z,1021.58
2019-03-29T16:26:35.830Z,1021.51
2019-03-29T16:28:28.527Z,1021.44
2019-03-29T16:29:28.410Z,1021.38
2019-03-29T16:31:21.102Z,1021.35
2019-03-29T16:32:20.980Z,1021.38
2019-03-29T16:34:13.673Z,1021.38
2019-03-29T16:35:13.554Z,1021.33
2019-03-29T16:37:06.234Z,1021.33
2019-03-29T16:38:06.123Z,1021.28
2019-03-29T16:39:58.826Z,1021.28
2019-03-29T16:40:58.707Z,1021.28
2019-03-29T16:42:51.402Z,1021.24
2019-03-29T16:43:51.283Z,1021.28
2019-03-29T16:45:48.098Z,1021.28
2019-03-29T16:46:43.847Z,1021.26
2019-03-29T16:48:36.534Z,1021.26
2019-03-29T16:49:36.413Z,1021.24
2019-03-29T16:51:29.099Z,1021.28
2019-03-29T16:52:29.003Z,1021.26
2019-03-29T16:54:22.178Z,1021.27
2019-03-29T16:55:22.052Z,1021.27
2019-03-29T16:57:14.743Z,1021.25
2019-03-29T16:58:14.633Z,1021.23
2019-03-29T17:00:07.346Z,1021.20
2019-03-29T17:01:07.221Z,1021.19
2019-03-29T17:02:59.940Z,1021.19
2019-03-29T17:03:59.793Z,1021.23
2019-03-29T17:05:52.486Z,1021.20
2019-03-29T17:06:52.364Z,1021.17
2019-03-29T17:08:45.040Z,1021.19
2019-03-29T17:09:44.932Z,1021.20
2019-03-29T17:11:37.626Z,1021.15
2019-03-29T17:12:37.504Z,1021.14
2019-03-29T17:14:30.233Z,1021.13
2019-03-29T17:15:30.103Z,1021.11
2019-03-29T17:17:22.929Z,1021.12
2019-03-29T17:18:29.184Z,1021.08
2019-03-29T17:20:15.437Z,1021.06
2019-03-29T17:21:15.295Z,1021.09
2019-03-29T17:23:08.967Z,1021.05
2019-03-29T17:24:08.923Z,1021.06
2019-03-29T17:26:01.548Z,1021.03
2019-03-29T17:27:01.434Z,1021.01
2019-03-29T17:28:54.107Z,1021.06
2019-03-29T17:29:53.996Z,1021.06
2019-03-29T17:31:46.717Z,1021.08
2019-03-29T17:32:46.572Z,1021.03
2019-03-29T17:34:39.314Z,1021.00
2019-03-29T17:35:39.233Z,1021.00
2019-03-29T17:37:31.893Z,1021.03
2019-03-29T17:38:31.765Z,1021.04
2019-03-29T17:40:24.454Z,1021.01
2019-03-29T17:41:24.336Z,1021.03
2019-03-29T17:43:17.007Z,1021.03
2019-03-29T17:44:16.897Z,1021.05
2019-03-29T17:46:16.188Z,1021.03
2019-03-29T17:47:09.474Z,1021.01
2019-03-29T17:49:02.142Z,1020.98
2019-03-29T17:50:02.039Z,1020.99
2019-03-29T17:51:54.724Z,1020.96
2019-03-29T17:52:54.593Z,1020.97
2019-03-29T17:54:47.272Z,1020.99
2019-03-29T17:55:47.419Z,1021.03
2019-03-29T17:57:39.849Z,1021.02
2019-03-29T17:58:39.724Z,1021.00
2019-03-29T18:00:32.435Z,1020.96
2019-03-29T18:01:32.289Z,1020.97
2019-03-29T18:03:24.985Z,1020.94
2019-03-29T18:04:24.864Z,1020.96
2019-03-29T18:06:17.554Z,1020.95
2019-03-29T18:07:17.425Z,1020.97
2019-03-29T18:09:10.101Z,1020.95
2019-03-29T18:10:09.989Z,1020.98
2019-03-29T18:12:02.679Z,1020.98
2019-03-29T18:13:02.556Z,1020.99
2019-03-29T18:14:55.228Z,1020.98
2019-03-29T18:15:55.117Z,1020.99
2019-03-29T18:17:48.139Z,1021.03
2019-03-29T18:18:47.682Z,1021.03
2019-03-29T18:20:40.351Z,1021.06
2019-03-29T18:21:40.246Z,1021.06
2019-03-29T18:23:32.932Z,1021.07
2019-03-29T18:24:32.813Z,1021.04
2019-03-29T18:26:25.490Z,1021.05
2019-03-29T18:27:25.380Z,1021.05
2019-03-29T18:29:18.064Z,1021.08
2019-03-29T18:30:17.940Z,1021.05
2019-03-29T18:32:10.630Z,1021.04
2019-03-29T18:33:10.512Z,1021.06
2019-03-29T18:35:03.187Z,1021.06
2019-03-29T18:36:03.070Z,1021.04
2019-03-29T18:37:55.773Z,1021.09
2019-03-29T18:38:55.649Z,1021.09
2019-03-29T18:40:48.323Z,1021.09
2019-03-29T18:41:48.226Z,1021.12
2019-03-29T18:43:40.924Z,1021.09
2019-03-29T18:44:40.780Z,1021.10
2019-03-29T18:46:43.900Z,1021.05
2019-03-29T18:47:33.351Z,1021.16
2019-03-29T18:49:26.045Z,1021.17
2019-03-29T18:50:25.903Z,1021.16
2019-03-29T18:52:18.595Z,1021.10
2019-03-29T18:53:18.469Z,1021.13
2019-03-29T18:55:11.157Z,1021.14
2019-03-29T18:56:11.049Z,1021.11
2019-03-29T18:58:05.888Z,1021.14
2019-03-29T18:59:03.617Z,1021.16
2019-03-29T19:00:56.291Z,1021.13
2019-03-29T19:01:56.184Z,1021.13
2019-03-29T19:03:48.991Z,1021.11
2019-03-29T19:04:48.862Z,1021.13
2019-03-29T19:06:41.536Z,1021.09
2019-03-29T19:07:41.428Z,1021.10
2019-03-29T19:09:34.120Z,1021.10
2019-03-29T19:10:33.994Z,1021.13
2019-03-29T19:12:26.662Z,1021.09
2019-03-29T19:13:26.558Z,1021.13
2019-03-29T19:15:19.241Z,1021.09
2019-03-29T19:16:19.117Z,1021.11
2019-03-29T19:18:11.807Z,1021.09
2019-03-29T19:19:11.682Z,1021.09
2019-03-29T19:21:04.353Z,1021.07
2019-03-29T19:22:04.247Z,1021.09
2019-03-29T19:23:56.958Z,1021.02
2019-03-29T19:24:56.800Z,1021.05
2019-03-29T19:26:49.479Z,1021.04
2019-03-29T19:27:49.361Z,1021.00
2019-03-29T19:29:42.057Z,1021.03
2019-03-29T19:30:41.917Z,1021.01
2019-03-29T19:32:34.586Z,1021.02
2019-03-29T19:33:34.488Z,1021.00
2019-03-29T19:35:27.175Z,1020.96
2019-03-29T19:36:27.048Z,1020.94
2019-03-29T19:38:19.743Z,1020.90
2019-03-29T19:39:19.607Z,1020.92
2019-03-29T19:41:12.282Z,1020.92
2019-03-29T19:42:12.172Z,1020.89
2019-03-29T19:44:04.864Z,1020.91
2019-03-29T19:45:04.729Z,1020.89
2019-03-29T19:46:57.407Z,1020.89
2019-03-29T19:47:57.299Z,1020.89
2019-03-29T19:49:49.981Z,1020.91
2019-03-29T19:50:49.859Z,1020.90
2019-03-29T19:52:42.545Z,1020.90
2019-03-29T19:53:42.439Z,1020.92
2019-03-29T19:55:35.216Z,1020.89
2019-03-29T19:56:35.064Z,1020.88
2019-03-29T19:58:27.721Z,1020.87
2019-03-29T19:59:27.593Z,1020.91
2019-03-29T20:01:20.296Z,1020.88
2019-03-29T20:02:20.140Z,1020.90
2019-03-29T20:04:12.832Z,1020.85
2019-03-29T20:05:12.704Z,1020.86
2019-03-29T20:07:05.377Z,1020.83
2019-03-29T20:08:05.261Z,1020.81
2019-03-29T20:09:57.953Z,1020.83
2019-03-29T20:10:57.821Z,1020.84
2019-03-29T20:12:50.493Z,1020.78
2019-03-29T20:13:50.382Z,1020.80
2019-03-29T20:15:43.080Z,1020.79
2019-03-29T20:16:42.946Z,1020.79
2019-03-29T20:18:35.844Z,1020.79
2019-03-29T20:19:35.503Z,1020.75
2019-03-29T20:21:28.192Z,1020.72
2019-03-29T20:22:28.069Z,1020.70
2019-03-29T20:24:20.749Z,1020.69
2019-03-29T20:25:20.635Z,1020.72
2019-03-29T20:27:13.322Z,1020.67
2019-03-29T20:28:13.194Z,1020.71
2019-03-29T20:30:05.870Z,1020.65
2019-03-29T20:31:05.756Z,1020.66
2019-03-29T20:32:58.484Z,1020.70
2019-03-29T20:33:58.404Z,1020.67
2019-03-29T20:35:51.034Z,1020.75
2019-03-29T20:36:50.916Z,1020.71
2019-03-29T20:38:43.583Z,1020.70
2019-03-29T20:39:43.479Z,1020.71
2019-03-29T20:41:36.165Z,1020.67
2019-03-29T20:42:36.035Z,1020.69
2019-03-29T20:44:28.697Z,1020.78
2019-03-29T20:45:28.589Z,1020.67
2019-03-29T20:47:21.278Z,1020.73
2019-03-29T20:48:21.148Z,1020.73
2019-03-29T20:50:13.822Z,1020.66
2019-03-29T20:51:13.726Z,1020.68
2019-03-29T20:53:06.554Z,1020.72
2019-03-29T20:54:06.275Z,1020.68
2019-03-29T20:55:59.072Z,1020.64
2019-03-29T20:56:58.989Z,1020.64
2019-03-29T20:58:51.737Z,1020.62
2019-03-29T20:59:51.537Z,1020.63
2019-03-29T21:01:44.416Z,1020.62
2019-03-29T21:02:44.060Z,1020.57
2019-03-29T21:04:36.796Z,1020.52
2019-03-29T21:05:36.718Z,1020.52
2019-03-29T21:07:29.429Z,1020.51
2019-03-29T21:08:29.365Z,1020.51
2019-03-29T21:10:21.877Z,1020.51
2019-03-29T21:11:21.739Z,1020.50
2019-03-29T21:13:14.433Z,1020.54
2019-03-29T21:14:14.314Z,1020.51
2019-03-29T21:16:07.106Z,1020.49
2019-03-29T21:17:06.878Z,1020.49
2019-03-29T21:18:59.575Z,1020.47
2019-03-29T21:19:59.517Z,1020.43
2019-03-29T21:21:52.153Z,1020.47
2019-03-29T21:22:52.028Z,1020.47
2019-03-29T21:24:44.694Z,1020.53
2019-03-29T21:25:44.691Z,1020.54
2019-03-29T21:27:37.271Z,1020.48
2019-03-29T21:28:37.143Z,1020.46
2019-03-29T21:30:29.845Z,1020.49
2019-03-29T21:31:29.797Z,1020.50
2019-03-29T21:33:22.439Z,1020.50
2019-03-29T21:34:22.344Z,1020.45
2019-03-29T21:36:17.976Z,1020.42
2019-03-29T21:37:14.866Z,1020.47
2019-03-29T21:39:07.558Z,1020.45
2019-03-29T21:40:07.498Z,1020.42
2019-03-29T21:42:00.100Z,1020.46
2019-03-29T21:43:01.764Z,1020.40
2019-03-29T21:44:52.692Z,1020.47
2019-03-29T21:45:52.558Z,1020.38
2019-03-29T21:47:45.235Z,1020.44
2019-03-29T21:48:45.115Z,1020.41
2019-03-29T21:50:37.805Z,1020.42
2019-03-29T21:51:37.670Z,1020.40
2019-03-29T21:53:30.344Z,1020.38
2019-03-29T21:54:30.245Z,1020.41
2019-03-29T21:56:22.936Z,1020.35
2019-03-29T21:57:22.813Z,1020.32
2019-03-29T21:59:15.474Z,1020.30
2019-03-29T22:00:15.367Z,1020.32
2019-03-29T22:02:08.054Z,1020.31
2019-03-29T22:03:07.922Z,1020.30
2019-03-29T22:05:00.635Z,1020.29
2019-03-29T22:06:00.487Z,1020.31
2019-03-29T22:07:53.167Z,1020.36
2019-03-29T22:08:53.049Z,1020.33
2019-03-29T22:10:45.730Z,1020.28
2019-03-29T22:11:45.607Z,1020.31
2019-03-29T22:13:38.272Z,1020.31
2019-03-29T22:14:38.160Z,1020.25
2019-03-29T22:16:30.844Z,1020.25
2019-03-29T22:17:30.720Z,1020.30
2019-03-29T22:19:23.403Z,1020.28
2019-03-29T22:20:23.281Z,1020.29
2019-03-29T22:22:15.970Z,1020.23
2019-03-29T22:23:15.840Z,1020.17